Time;durP1;ratioP1;P1;durP2;ratioP2;P2;SDS_P1;SDS_P2;PMS_P1;PMS_P2;Temp;Humidity;BMP_temperature;BMP_pressure;BME280_temperature;BME280_humidity;BME280_pressure;Samples;Min_cycle;Max_cycle;Signal;HPM_P1;HPM_P2
2024/04/06 00:02:14;;;;;;;4.57;1.60;;;;;;;17.53;60.80;100962.34;10373394;28;20270;-62
2024/04/06 00:07:14;;;;;;;3.03;1.15;;;;;;;17.50;61.14;100947.59;10355718;28;20968;-62
2024/04/06 00:12:14;;;;;;;3.43;1.73;;;;;;;17.49;61.01;100940.63;10372651;28;20485;-62
2024/04/06 00:17:15;;;;;;;2.50;1.50;;;;;;;17.49;60.84;100948.66;10397552;28;20304;-63
2024/04/06 00:22:15;;;;;;;3.33;1.50;;;;;;;17.49;60.27;100948.66;10372655;28;20026;-62
2024/04/06 00:27:15;;;;;;;3.35;1.75;;;;;;;17.52;60.05;100944.63;10354925;28;20464;-62
2024/04/06 00:32:16;;;;;;;2.10;1.33;;;;;;;17.53;60.49;100965.81;10378283;28;20028;-62
2024/04/06 00:37:16;;;;;;;4.20;1.63;;;;;;;17.54;60.25;100966.59;10406062;28;20299;-63
2024/04/06 00:42:16;;;;;;;1.50;1.20;;;;;;;17.53;60.76;100963.13;10371665;28;20312;-63
2024/04/06 00:47:17;;;;;;;2.37;1.37;;;;;;;17.54;60.48;100964.72;10354572;28;20699;-63
2024/04/06 00:52:17;;;;;;;4.72;1.63;;;;;;;17.56;60.20;100972.47;10352778;28;20295;-62
2024/04/06 00:57:17;;;;;;;2.20;1.38;;;;;;;17.54;61.26;100959.38;10353903;28;20037;-62
2024/04/06 01:02:18;;;;;;;2.40;1.40;;;;;;;17.55;60.40;100962.84;10353402;28;20032;-62
2024/04/06 01:07:18;;;;;;;3.17;1.60;;;;;;;17.54;60.07;100962.03;10371299;28;20029;-62
2024/04/06 01:12:18;;;;;;;2.53;1.70;;;;;;;17.52;60.21;100960.69;10370489;28;20293;-62
2024/04/06 01:17:19;;;;;;;3.27;1.30;;;;;;;17.52;59.70;100964.22;10370547;28;20853;-63
2024/04/06 01:22:19;;;;;;;3.00;1.50;;;;;;;17.53;60.25;100973.84;10370285;28;20360;-63
2024/04/06 01:27:19;;;;;;;2.25;1.27;;;;;;;17.51;60.56;100957.22;10353080;28;20285;-62
2024/04/06 01:32:20;;;;;;;3.70;1.40;;;;;;;17.51;60.47;100970.63;10369792;28;20038;-62
2024/04/06 01:37:20;;;;;;;3.70;2.00;;;;;;;17.52;60.00;100966.06;10352165;28;20649;-62
2024/04/06 01:42:20;;;;;;;3.75;1.50;;;;;;;17.52;60.91;100941.94;10369418;28;20331;-63
2024/04/06 01:47:21;;;;;;;2.53;1.60;;;;;;;17.49;59.60;100961.28;10369811;28;20114;-63
2024/04/06 01:52:21;;;;;;;3.47;1.50;;;;;;;17.50;61.03;100957.50;10369293;28;20399;-63
2024/04/06 01:57:21;;;;;;;2.07;1.23;;;;;;;17.50;59.94;100946.78;10369437;28;20359;-62
2024/04/06 02:02:22;;;;;;;2.07;1.27;;;;;;;17.51;60.80;100962.59;10368857;28;20273;-62
2024/04/06 02:07:22;;;;;;;2.97;1.42;;;;;;;17.51;60.90;100954.53;10369131;28;20285;-62
2024/04/06 02:12:23;;;;;;;3.17;1.30;;;;;;;17.51;60.29;100961.78;10368212;28;20088;-62
2024/04/06 02:17:24;;;;;;;1.95;1.15;;;;;;;17.52;60.42;100952.66;10450854;28;20283;-62
2024/04/06 02:22:25;;;;;;;3.53;1.70;;;;;;;17.52;60.76;100944.63;10450460;28;20516;-63
2024/04/06 02:27:25;;;;;;;2.93;1.53;;;;;;;17.52;60.83;100953.50;10450745;28;20048;-63
2024/04/06 02:32:26;;;;;;;3.10;1.20;;;;;;;17.51;60.60;100945.69;10432070;28;20287;-62
2024/04/06 02:37:27;;;;;;;2.92;1.17;;;;;;;17.50;60.28;100952.94;10450354;28;20311;-62
2024/04/06 02:42:27;;;;;;;2.10;1.10;;;;;;;17.49;60.86;100953.22;10449648;28;20108;-63
2024/04/06 02:47:28;;;;;;;10.25;1.65;;;;;;;17.48;61.01;100948.94;10450284;28;20307;-63
2024/04/06 02:52:28;;;;;;;1.63;1.10;;;;;;;17.47;60.01;100942.78;10431855;28;20108;-63
2024/04/06 02:57:29;;;;;;;2.30;1.33;;;;;;;17.48;61.12;100931.00;10432026;28;20033;-63
2024/04/06 03:02:29;;;;;;;2.47;1.33;;;;;;;17.51;61.19;100918.88;10449165;28;20275;-62
2024/04/06 03:07:30;;;;;;;1.80;1.10;;;;;;;17.47;60.77;100920.56;10449685;28;20040;-62
2024/04/06 03:12:30;;;;;;;1.85;1.00;;;;;;;17.48;60.78;100927.50;10450020;28;20290;-62
2024/04/06 03:17:31;;;;;;;1.92;1.20;;;;;;;17.48;59.71;100916.78;10457922;28;20139;-62
2024/04/06 03:22:32;;;;;;;2.90;1.95;;;;;;;17.48;60.21;100906.88;10456911;28;20047;-63
2024/04/06 03:27:32;;;;;;;2.33;0.93;;;;;;;17.49;60.88;100904.97;10439842;28;20456;-63
2024/04/06 03:32:32;;;;;;;1.33;1.00;;;;;;;17.48;60.16;100900.69;10456553;28;20292;-63
2024/04/06 03:37:32;;;;;;;1.80;1.10;;;;;;;17.47;60.69;100875.78;10456949;28;20672;-63
2024/04/06 03:42:33;;;;;;;2.67;1.63;;;;;;;17.47;60.70;100891.84;10456453;28;20020;-63
2024/04/06 03:47:33;;;;;;;1.58;0.90;;;;;;;17.47;60.11;100902.59;10438458;28;20767;-63
2024/04/06 03:52:34;;;;;;;3.33;1.60;;;;;;;17.44;60.72;100905.84;10455826;28;20021;-63
2024/04/06 03:57:34;;;;;;;2.80;0.97;;;;;;;17.45;60.38;100906.63;10456031;28;20293;-63
2024/04/06 04:02:38;;;;;;;2.80;1.37;;;;;;;17.46;60.75;100909.03;10437636;28;20279;-63
2024/04/06 04:07:38;;;;;;;3.05;1.15;;;;;;;17.45;60.69;100898.59;10455781;28;20348;-63
2024/04/06 04:12:38;;;;;;;2.07;1.17;;;;;;;17.46;61.17;100901.00;10452533;28;20053;-63
2024/04/06 04:17:39;;;;;;;1.77;1.03;;;;;;;17.45;61.37;100899.38;10393187;28;20780;-62
2024/04/06 04:22:39;;;;;;;2.35;1.00;;;;;;;17.45;60.33;100895.91;10373229;28;20033;-62
2024/04/06 04:27:39;;;;;;;1.13;0.73;;;;;;;17.46;61.06;100884.91;10371565;28;20033;-62
2024/04/06 04:32:40;;;;;;;2.50;1.03;;;;;;;17.44;61.00;100897.78;10372031;28;20292;-63
2024/04/06 04:37:40;;;;;;;1.90;0.90;;;;;;;17.43;61.11;100884.69;10371549;28;20276;-62
2024/04/06 04:42:40;;;;;;;1.80;1.00;;;;;;;17.43;60.87;100887.38;10371275;28;20269;-63
2024/04/06 04:47:41;;;;;;;1.70;1.17;;;;;;;17.43;60.79;100885.47;10373382;28;20275;-63
2024/04/06 04:52:41;;;;;;;2.10;1.17;;;;;;;17.45;60.63;100890.56;10355168;28;20790;-63
2024/04/06 04:57:42;;;;;;;2.97;1.07;;;;;;;17.45;61.51;100890.56;10371958;28;20100;-63
2024/04/06 05:02:42;;;;;;;1.90;1.10;;;;;;;17.45;59.98;100887.88;10388377;28;20287;-62
2024/04/06 05:07:42;;;;;;;2.00;1.20;;;;;;;17.44;59.70;100870.19;10379487;28;20285;-63
2024/04/06 05:12:43;;;;;;;1.60;0.97;;;;;;;17.44;60.75;100859.47;10388612;28;20693;-61
2024/04/06 05:17:43;;;;;;;1.48;0.98;;;;;;;17.56;61.54;100851.84;10370568;28;20285;-61
2024/04/06 05:22:43;;;;;;;3.22;1.10;;;;;;;17.71;61.73;100834.78;10370984;28;20446;-61
2024/04/06 05:27:44;;;;;;;4.33;1.17;;;;;;;17.82;61.28;100834.38;10370838;28;20096;-61
2024/04/06 05:32:44;;;;;;;8.43;2.10;;;;;;;17.82;62.17;100857.72;10380735;28;20054;-62
2024/04/06 05:37:44;;;;;;;6.47;1.57;;;;;;;17.81;61.55;100854.25;10386213;28;20622;-63
2024/04/06 05:42:45;;;;;;;8.07;1.90;;;;;;;17.76;61.60;100864.25;10370049;28;20290;-61
2024/04/06 05:47:45;;;;;;;10.18;1.73;;;;;;;17.70;61.44;100862.69;10382779;28;20777;-61
2024/04/06 05:52:46;;;;;;;6.73;1.60;;;;;;;17.67;61.62;100864.03;10385434;28;20453;-62
2024/04/06 05:57:46;;;;;;;7.25;1.67;;;;;;;17.59;61.65;100845.91;10387047;28;20286;-62
2024/04/06 06:02:47;;;;;;;18.03;3.40;;;;;;;17.52;63.29;100838.22;10394361;28;20017;-62
2024/04/06 06:07:47;;;;;;;17.47;3.43;;;;;;;17.52;63.49;100829.34;10367817;28;20042;-62
2024/04/06 06:12:48;;;;;;;9.32;2.20;;;;;;;17.49;63.22;100848.69;10370148;28;20300;-64
2024/04/06 06:17:48;;;;;;;9.25;2.10;;;;;;;17.74;63.00;100842.25;10384601;28;20021;-61
2024/04/06 06:22:48;;;;;;;16.58;2.88;;;;;;;17.94;62.19;100825.94;10387286;28;20473;-61
2024/04/06 06:27:49;;;;;;;6.63;2.03;;;;;;;18.02;61.77;100841.38;10368150;28;20026;-60
2024/04/06 06:32:50;;;;;;;13.13;2.57;;;;;;;17.86;62.30;100861.44;10368363;28;20036;-59
2024/04/06 06:37:50;;;;;;;9.77;2.28;;;;;;;17.75;63.27;100852.69;10367799;28;20279;-60
2024/04/06 06:42:51;;;;;;;11.38;2.28;;;;;;;17.74;62.50;100848.41;10368233;28;20033;-61
2024/04/06 06:47:51;;;;;;;9.80;1.80;;;;;;;17.95;62.13;100858.91;10366928;28;20454;-59
2024/04/06 06:52:51;;;;;;;9.03;2.43;;;;;;;17.75;63.13;100857.25;10349938;28;20291;-60
2024/04/06 06:57:53;;;;;;;9.27;2.17;;;;;;;17.67;63.48;100839.91;10366821;28;20026;-60
2024/04/06 07:02:53;;;;;;;6.53;1.88;;;;;;;17.64;63.58;100850.38;10350053;28;20303;-59
2024/04/06 07:07:55;;;;;;;10.82;2.70;;;;;;;17.76;62.76;100845.47;10333378;28;20018;-59
2024/04/06 07:12:56;;;;;;;8.05;2.63;;;;;;;17.75;62.61;100830.44;10350962;28;20049;-59
2024/04/06 07:17:57;;;;;;;13.27;2.72;;;;;;;17.64;62.70;100843.16;10448859;28;20040;-61
2024/04/06 07:22:57;;;;;;;7.82;2.28;;;;;;;17.60;62.59;100838.66;10432056;28;20055;-62
2024/04/06 07:27:58;;;;;;;7.50;2.57;;;;;;;17.53;63.71;100839.81;10430200;28;20028;-61
2024/04/06 07:32:58;;;;;;;10.57;2.60;;;;;;;17.54;63.13;100821.84;10448283;28;20642;-61
2024/04/06 07:37:58;;;;;;;13.23;2.50;;;;;;;17.53;63.56;100822.91;10430582;28;20275;-61
2024/04/06 07:43:00;;;;;;;11.43;1.93;;;;;;;17.52;62.73;100819.44;10448272;28;20271;-60
2024/04/06 07:48:00;;;;;;;7.25;2.42;;;;;;;17.50;61.84;100802.81;10443336;28;20302;-62
2024/04/06 07:53:00;;;;;;;6.35;1.98;;;;;;;17.49;62.35;100805.78;10424479;28;20036;-62
2024/04/06 07:58:01;;;;;;;10.73;2.10;;;;;;;17.42;62.03;100806.16;10428887;28;20082;-61
2024/04/06 08:03:01;;;;;;;8.43;2.83;;;;;;;17.40;61.84;100792.22;10453694;28;20291;-62
2024/04/06 08:08:02;;;;;;;8.57;2.30;;;;;;;17.43;62.46;100798.91;10429394;28;20766;-61
2024/04/06 08:13:02;;;;;;;6.45;2.25;;;;;;;17.44;63.37;100797.81;10450945;28;20053;-61
2024/04/06 08:18:03;;;;;;;3.67;2.15;;;;;;;17.46;62.49;100790.28;10450816;28;20029;-61
2024/04/06 08:23:03;;;;;;;7.78;2.42;;;;;;;17.46;62.21;100780.34;10448151;28;20086;-60
2024/04/06 08:28:04;;;;;;;4.03;1.70;;;;;;;17.48;62.74;100777.38;10436239;28;20025;-61
2024/04/06 08:33:05;;;;;;;5.32;2.50;;;;;;;17.51;62.47;100771.44;10435572;28;20286;-61
2024/04/06 08:38:07;;;;;;;4.75;1.90;;;;;;;17.56;62.72;100770.59;10454297;28;20377;-61
2024/04/06 08:43:11;;;;;;;8.63;3.10;;;;;;;17.58;63.24;100763.88;10454646;28;20063;-61
2024/04/06 08:48:12;;;;;;;5.15;2.13;;;;;;;17.60;62.66;100761.69;10435830;28;20389;-61
2024/04/06 08:53:12;;;;;;;6.93;2.33;;;;;;;17.61;62.51;100759.81;10435952;28;20047;-61
2024/04/06 08:58:13;;;;;;;4.40;1.70;;;;;;;17.61;62.89;100763.28;10435456;28;20036;-60
2024/04/06 09:03:13;;;;;;;6.57;2.08;;;;;;;17.65;62.02;100760.84;10453432;28;20033;-61
2024/04/06 09:08:17;;;;;;;3.67;1.60;;;;;;;17.68;62.37;100761.06;10453106;28;20036;-61
2024/04/06 09:13:17;;;;;;;5.50;1.88;;;;;;;17.74;61.99;100751.06;10448790;28;20291;-61
2024/04/06 09:18:17;;;;;;;2.53;1.53;;;;;;;17.75;62.22;100747.31;10433833;28;20074;-62
2024/04/06 09:23:19;;;;;;;7.32;2.20;;;;;;;17.79;61.82;100741.09;10450906;28;20279;-60
2024/04/06 09:28:19;;;;;;;3.33;1.95;;;;;;;17.84;62.16;100732.16;10450983;28;20129;-61
2024/04/06 09:33:23;;;;;;;4.30;1.42;;;;;;;17.85;62.50;100717.66;10430693;28;20029;-61
2024/04/06 09:38:24;;;;;;;6.88;1.73;;;;;;;17.83;61.77;100712.59;10449138;28;20060;-61
2024/04/06 09:43:25;;;;;;;5.63;2.78;;;;;;;17.82;62.48;100708.31;10433034;28;20017;-61
2024/04/06 09:48:27;;;;;;;2.58;1.65;;;;;;;17.82;62.74;100710.22;10433527;28;20025;-62
2024/04/06 09:53:27;;;;;;;4.13;1.65;;;;;;;17.80;61.85;100694.41;10433642;28;20633;-61
2024/04/06 09:58:29;;;;;;;5.33;1.47;;;;;;;17.78;62.61;100677.03;10432947;28;20100;-62
2024/04/06 10:03:37;;;;;;;3.90;1.30;;;;;;;17.79;64.07;100662.53;10433233;28;20357;-61
2024/04/06 10:08:47;;;;;;;3.25;1.85;;;;;;;17.78;61.67;100661.72;10450801;28;20104;-64
2024/04/06 10:13:53;;;;;;;3.45;1.50;;;;;;;17.87;62.99;100661.03;10432391;28;20611;-60
2024/04/06 10:18:58;;;;;;;6.63;1.90;;;;;;;17.84;63.33;100659.75;10449487;28;20056;-61
2024/04/06 10:24:02;;;;;;;7.72;2.25;;;;;;;17.83;61.98;100647.44;10448962;28;20082;-60
2024/04/06 10:29:02;;;;;;;3.25;1.60;;;;;;;17.85;63.02;100647.94;10430941;28;20032;-60
2024/04/06 10:34:04;;;;;;;10.77;2.13;;;;;;;17.88;62.85;100651.91;10449224;28;20465;-61
2024/04/06 10:39:04;;;;;;;5.93;1.63;;;;;;;17.87;62.74;100664.53;10430984;28;20488;-60
2024/04/06 10:44:05;;;;;;;4.47;1.43;;;;;;;17.85;62.50;100655.97;10431483;28;20035;-60
2024/04/06 10:49:10;;;;;;;5.15;1.63;;;;;;;17.84;63.09;100643.66;10448651;28;20275;-62
2024/04/06 10:54:11;;;;;;;3.30;2.15;;;;;;;17.87;62.50;100635.03;10430849;28;20029;-61
2024/04/06 10:59:12;;;;;;;3.08;1.38;;;;;;;17.88;61.49;100631.28;10448939;28;20021;-61
2024/04/06 11:04:12;;;;;;;4.43;1.85;;;;;;;17.89;62.36;100630.19;10449161;28;20036;-60
2024/04/06 11:09:13;;;;;;;5.18;1.67;;;;;;;17.93;62.36;100625.03;10448311;28;20362;-61
2024/04/06 11:14:13;;;;;;;7.55;2.10;;;;;;;17.95;62.12;100612.09;10430594;28;20037;-60
2024/04/06 11:19:16;;;;;;;4.07;1.40;;;;;;;17.97;62.23;100597.31;10447873;28;20035;-60
2024/04/06 11:24:17;;;;;;;3.58;1.55;;;;;;;17.99;61.46;100581.72;10448422;28;20067;-61
2024/04/06 11:29:17;;;;;;;3.15;1.50;;;;;;;18.03;61.59;100593.47;10447728;28;20383;-60
2024/04/06 11:34:18;;;;;;;3.10;1.63;;;;;;;18.07;62.41;100594.44;10450976;28;20104;-61
2024/04/06 11:39:18;;;;;;;3.67;1.53;;;;;;;18.10;62.43;100593.84;10437479;28;20279;-61
2024/04/06 11:44:18;;;;;;;3.37;1.37;;;;;;;18.14;62.48;100595.97;10456308;28;20865;-61
2024/04/06 11:49:19;;;;;;;3.83;1.50;;;;;;;18.13;61.54;100595.19;10437625;28;20279;-60
2024/04/06 11:54:20;;;;;;;3.93;1.43;;;;;;;18.17;61.48;100576.59;10455659;28;20666;-61
2024/04/06 11:59:21;;;;;;;2.85;1.20;;;;;;;18.21;61.03;100572.22;10454811;28;20324;-61
2024/04/06 12:04:21;;;;;;;3.30;1.50;;;;;;;18.24;61.70;100564.38;10437321;28;20021;-60
2024/04/06 12:09:22;;;;;;;2.05;1.20;;;;;;;18.28;61.16;100557.31;10454646;28;20028;-61
2024/04/06 12:14:22;;;;;;;2.40;1.75;;;;;;;18.33;61.30;100553.72;10436357;28;20049;-61
2024/04/06 12:19:25;;;;;;;4.50;1.70;;;;;;;18.37;60.54;100547.50;10453948;28;20039;-61
2024/04/06 12:24:27;;;;;;;2.47;1.20;;;;;;;18.40;60.78;100540.72;10454303;28;20275;-61
2024/04/06 12:29:28;;;;;;;2.92;1.40;;;;;;;18.38;61.47;100530.28;10453830;28;20017;-60
2024/04/06 12:34:28;;;;;;;2.75;1.38;;;;;;;18.35;61.51;100519.34;10436047;28;20033;-60
2024/04/06 12:39:29;;;;;;;1.93;1.13;;;;;;;18.30;61.41;100543.59;10453150;28;20070;-60
2024/04/06 12:44:33;;;;;;;2.43;1.33;;;;;;;18.26;61.22;100554.16;10435181;28;20536;-61
2024/04/06 12:49:33;;;;;;;5.90;1.85;;;;;;;18.24;60.98;100575.13;10434418;28;20286;-61
2024/04/06 12:54:33;;;;;;;3.20;1.50;;;;;;;18.23;61.16;100572.72;10453238;28;20036;-60
2024/04/06 12:59:34;;;;;;;2.50;1.27;;;;;;;18.22;61.01;100581.84;10434147;28;20557;-59
2024/04/06 13:04:34;;;;;;;5.38;1.70;;;;;;;18.20;60.64;100600.94;10426948;28;20431;-62
2024/04/06 13:09:35;;;;;;;4.37;1.83;;;;;;;18.21;61.17;100605.22;10434589;28;20036;-60
2024/04/06 13:14:35;;;;;;;3.92;1.42;;;;;;;18.23;60.02;100605.75;10452005;28;20041;-61
2024/04/06 13:19:36;;;;;;;4.83;1.53;;;;;;;18.24;59.00;100609.22;10452090;28;20029;-61
2024/04/06 13:24:36;;;;;;;3.20;1.27;;;;;;;18.24;59.62;100614.59;10447077;28;20748;-61
2024/04/06 13:29:37;;;;;;;3.25;1.30;;;;;;;18.30;58.55;100618.75;10449703;28;20032;-60
2024/04/06 13:34:37;;;;;;;3.42;1.40;;;;;;;18.31;58.61;100614.97;10451555;28;20024;-60
2024/04/06 13:39:38;;;;;;;6.47;1.10;;;;;;;18.27;57.29;100612.09;10450832;28;20043;-61
2024/04/06 13:44:38;;;;;;;6.13;1.40;;;;;;;18.34;57.86;100604.44;10450649;28;20279;-61
2024/04/06 13:49:39;;;;;;;3.83;1.83;;;;;;;18.34;58.58;100607.13;10449303;28;20614;-62
2024/04/06 13:54:40;;;;;;;3.67;1.55;;;;;;;18.39;58.53;100603.56;10437667;28;20033;-62
2024/04/06 13:59:40;;;;;;;3.55;1.50;;;;;;;18.40;58.69;100597.09;10449215;28;20021;-61
2024/04/06 14:04:40;;;;;;;3.87;1.37;;;;;;;18.39;58.74;100576.72;10448339;28;20353;-61
2024/04/06 14:09:41;;;;;;;2.93;1.27;;;;;;;18.42;57.58;100586.84;10431531;28;20028;-61
2024/04/06 14:14:41;;;;;;;5.60;1.40;;;;;;;18.46;57.92;100562.88;10431228;28;20772;-61
2024/04/06 14:19:41;;;;;;;5.57;2.10;;;;;;;18.47;58.14;100575.22;10432576;28;20279;-61
2024/04/06 14:24:42;;;;;;;6.60;1.23;;;;;;;18.47;57.59;100573.34;10449821;28;20370;-62
2024/04/06 14:29:42;;;;;;;3.00;1.60;;;;;;;18.50;57.37;100563.91;10449085;28;20608;-61
2024/04/06 14:34:43;;;;;;;2.60;1.20;;;;;;;18.50;57.73;100569.28;10431304;28;20325;-60
2024/04/06 14:39:43;;;;;;;5.15;1.33;;;;;;;18.45;57.95;100567.47;10435469;28;20114;-61
2024/04/06 14:44:43;;;;;;;4.73;1.60;;;;;;;18.44;56.12;100563.19;10447785;28;20036;-60
2024/04/06 14:49:44;;;;;;;5.87;1.53;;;;;;;18.51;56.89;100565.50;10449520;28;20267;-60
2024/04/06 14:54:48;;;;;;;3.75;1.35;;;;;;;18.50;56.27;100553.16;10430207;28;20024;-61
2024/04/06 14:59:48;;;;;;;3.60;1.23;;;;;;;18.52;56.75;100557.13;10448714;28;20103;-61
2024/04/06 15:04:49;;;;;;;4.27;1.53;;;;;;;18.52;57.38;100567.88;10448801;28;20025;-60
2024/04/06 15:09:49;;;;;;;6.88;1.48;;;;;;;18.51;55.79;100565.50;10452210;28;20283;-61
2024/04/06 15:14:50;;;;;;;3.47;1.10;;;;;;;18.51;55.49;100574.34;10457096;28;20422;-61
2024/04/06 15:19:51;;;;;;;3.35;1.23;;;;;;;18.51;55.64;100576.22;10457515;28;20033;-62
2024/04/06 15:24:51;;;;;;;2.03;1.00;;;;;;;18.49;55.63;100589.97;10422936;28;20021;-62
2024/04/06 15:29:52;;;;;;;4.43;1.00;;;;;;;18.52;55.52;100591.25;10438664;28;20045;-62
2024/04/06 15:34:52;;;;;;;3.63;1.70;;;;;;;18.52;56.21;100586.66;10456400;28;20033;-62
2024/04/06 15:39:52;;;;;;;4.05;1.35;;;;;;;18.51;56.49;100568.19;10456978;28;20283;-62
2024/04/06 15:44:53;;;;;;;4.10;1.50;;;;;;;18.52;56.55;100575.13;10438605;28;20086;-62
2024/04/06 15:49:53;;;;;;;5.22;1.52;;;;;;;18.66;56.25;100581.31;10437777;28;20282;-63
2024/04/06 15:54:53;;;;;;;4.30;1.50;;;;;;;18.83;55.60;100588.78;10437637;28;20465;-63
2024/04/06 15:59:54;;;;;;;3.77;1.47;;;;;;;18.90;55.78;100595.34;10456182;28;20292;-62
2024/04/06 16:04:54;;;;;;;2.63;1.03;;;;;;;18.97;57.59;100582.31;10455694;28;20275;-61
2024/04/06 16:09:54;;;;;;;9.45;2.55;;;;;;;19.06;61.48;100597.69;10455745;28;20025;-63
2024/04/06 16:14:55;;;;;;;7.03;2.87;;;;;;;19.20;63.09;100609.25;10455157;28;20381;-62
2024/04/06 16:19:56;;;;;;;3.65;2.20;;;;;;;19.52;58.41;100592.09;10455250;28;20282;-62
2024/04/06 16:24:56;;;;;;;4.33;2.00;;;;;;;19.26;58.01;100597.25;10455061;28;20519;-63
2024/04/06 16:29:56;;;;;;;5.43;2.17;;;;;;;19.11;57.82;100598.41;10437261;28;20048;-63
2024/04/06 16:34:57;;;;;;;4.87;2.17;;;;;;;19.05;58.31;100618.41;10454376;28;20828;-63
2024/04/06 16:39:57;;;;;;;7.33;1.97;;;;;;;18.95;58.73;100599.81;10437072;28;20362;-63
2024/04/06 16:44:57;;;;;;;4.20;2.37;;;;;;;18.89;56.97;100614.44;10454213;28;20025;-61
2024/04/06 16:49:57;;;;;;;4.20;1.60;;;;;;;18.90;57.78;100626.78;10454109;28;20308;-64
2024/04/06 16:54:58;;;;;;;4.07;1.90;;;;;;;18.84;57.95;100636.84;10453565;28;20337;-63
2024/04/06 16:59:58;;;;;;;5.40;1.70;;;;;;;18.80;57.73;100638.53;10453451;28;20333;-61
2024/04/06 17:04:59;;;;;;;4.13;1.73;;;;;;;18.78;57.82;100653.34;10435148;28;20279;-61
2024/04/06 17:09:59;;;;;;;4.07;1.70;;;;;;;18.81;57.31;100658.91;10435456;28;20021;-60
2024/04/06 17:15:01;;;;;;;11.57;2.58;;;;;;;18.83;57.73;100656.75;10452737;28;20450;-62
2024/04/06 17:20:05;;;;;;;7.90;2.35;;;;;;;18.81;58.06;100660.81;10435315;28;20424;-63
2024/04/06 17:25:07;;;;;;;9.05;2.47;;;;;;;18.81;58.00;100650.84;10434816;28;20028;-62
2024/04/06 17:30:07;;;;;;;6.93;2.28;;;;;;;18.77;57.29;100665.97;10452335;28;20405;-62
2024/04/06 17:35:09;;;;;;;7.70;1.90;;;;;;;18.75;57.15;100659.31;10451587;28;20055;-62
2024/04/06 17:40:10;;;;;;;7.95;1.92;;;;;;;18.70;57.17;100658.31;10452326;28;20078;-61
2024/04/06 17:45:10;;;;;;;6.22;1.85;;;;;;;18.70;58.13;100663.69;10451929;28;20020;-61
2024/04/06 17:50:11;;;;;;;4.72;2.10;;;;;;;18.70;57.69;100666.38;10452023;28;20037;-62
2024/04/06 17:55:11;;;;;;;4.15;1.40;;;;;;;18.68;58.57;100681.97;10451358;28;20059;-62
2024/04/06 18:00:12;;;;;;;7.68;2.00;;;;;;;18.68;57.92;100683.88;10417583;28;20041;-62
2024/04/06 18:05:13;;;;;;;3.22;1.38;;;;;;;18.68;57.87;100678.50;10450811;28;20025;-61
2024/04/06 18:10:13;;;;;;;5.17;1.83;;;;;;;18.66;58.16;100676.13;10451178;28;20024;-61
2024/04/06 18:15:13;;;;;;;3.03;1.37;;;;;;;18.67;57.50;100680.41;10432555;28;20045;-61
2024/04/06 18:20:16;;;;;;;4.55;1.67;;;;;;;18.67;57.69;100680.41;10450785;28;20282;-61
2024/04/06 18:25:16;;;;;;;3.58;1.63;;;;;;;18.66;57.74;100678.00;10450443;28;20096;-62
2024/04/06 18:30:16;;;;;;;3.23;1.50;;;;;;;18.66;58.07;100673.44;10432803;28;20036;-62
2024/04/06 18:35:17;;;;;;;3.43;1.97;;;;;;;18.66;58.50;100673.44;10431430;28;20071;-61
2024/04/06 18:40:17;;;;;;;3.15;1.60;;;;;;;18.66;57.94;100672.63;10449484;28;20279;-61
2024/04/06 18:45:17;;;;;;;4.13;2.03;;;;;;;18.64;58.15;100686.38;10448876;28;20065;-61
2024/04/06 18:50:18;;;;;;;4.67;1.87;;;;;;;18.68;58.44;100702.69;10449153;28;20037;-61
2024/04/06 18:55:19;;;;;;;5.63;1.98;;;;;;;18.73;58.63;100699.13;10435752;28;20291;-61
2024/04/06 19:00:19;;;;;;;3.75;1.23;;;;;;;18.71;58.42;100707.47;10430667;28;20052;-61
2024/04/06 19:05:20;;;;;;;4.05;1.50;;;;;;;18.68;58.94;100706.16;10449448;28;20020;-61
2024/04/06 19:10:21;;;;;;;3.05;1.33;;;;;;;18.68;57.63;100702.69;10449662;28;20029;-61
2024/04/06 19:15:23;;;;;;;4.20;1.55;;;;;;;18.67;58.57;100696.50;10423093;28;20441;-61
2024/04/06 19:20:23;;;;;;;3.08;1.50;;;;;;;18.66;58.46;100694.13;10408255;28;20543;-61
2024/04/06 19:25:23;;;;;;;5.07;1.73;;;;;;;18.66;58.49;100688.75;10407992;28;20032;-61
2024/04/06 19:30:24;;;;;;;2.80;1.17;;;;;;;18.65;58.47;100684.47;10405973;28;20729;-61
2024/04/06 19:35:24;;;;;;;3.42;1.63;;;;;;;18.65;58.59;100679.91;10414944;28;20030;-61
2024/04/06 19:40:24;;;;;;;3.63;2.10;;;;;;;18.66;58.66;100675.31;10406766;28;20096;-61
2024/04/06 19:45:25;;;;;;;3.77;1.60;;;;;;;18.66;58.79;100683.38;10407490;28;20916;-61
2024/04/06 19:50:25;;;;;;;4.37;1.80;;;;;;;18.65;58.79;100687.97;10407779;28;20280;-61
2024/04/06 19:55:25;;;;;;;5.18;1.50;;;;;;;18.66;59.03;100673.44;10409748;28;20029;-60
2024/04/06 20:00:26;;;;;;;3.70;1.23;;;;;;;18.67;58.67;100660.78;10397210;28;20029;-61
2024/04/06 20:05:26;;;;;;;4.13;1.60;;;;;;;18.66;58.63;100686.06;10396677;28;20308;-61
2024/04/06 20:10:26;;;;;;;4.20;1.70;;;;;;;18.66;59.16;100675.31;10414813;28;20280;-61
2024/04/06 20:15:27;;;;;;;3.67;1.52;;;;;;;18.67;58.97;100668.84;10413649;28;20295;-60
2024/04/06 20:20:28;;;;;;;2.53;1.23;;;;;;;18.67;59.05;100672.34;10396627;28;20029;-61
2024/04/06 20:30:47;;;;;;;4.03;1.43;;;;;;;18.67;58.98;100669.66;10414382;28;20029;-61
2024/04/06 20:35:47;;;;;;;2.03;1.23;;;;;;;18.67;58.51;100679.59;10413160;28;20025;-61
2024/04/06 20:40:47;;;;;;;3.50;1.35;;;;;;;18.66;58.93;100665.38;10413621;28;20116;-61
2024/04/06 20:45:48;;;;;;;4.65;1.20;;;;;;;18.66;58.65;100665.38;10379083;28;20033;-61
2024/04/06 20:50:48;;;;;;;1.83;1.03;;;;;;;18.66;58.54;100668.06;10413502;28;20034;-61
2024/04/06 20:55:49;;;;;;;4.80;2.00;;;;;;;18.65;58.63;100674.53;10395011;28;20033;-61
2024/04/06 21:00:49;;;;;;;2.80;1.73;;;;;;;18.66;58.96;100676.13;10412946;28;20087;-61
2024/04/06 21:05:49;;;;;;;2.17;1.35;;;;;;;18.66;58.67;100676.13;10411400;28;20075;-60
2024/04/06 21:10:50;;;;;;;5.13;1.40;;;;;;;18.66;58.35;100669.94;10412142;28;20029;-60
2024/04/06 21:15:50;;;;;;;3.20;1.30;;;;;;;18.66;58.84;100678.00;10411903;28;20292;-61
2024/04/06 21:20:50;;;;;;;3.87;1.43;;;;;;;18.66;58.63;100670.75;10394576;28;20060;-60
2024/04/06 21:25:51;;;;;;;3.90;1.80;;;;;;;18.66;58.83;100654.63;10393686;28;20025;-61
2024/04/06 21:30:51;;;;;;;3.27;1.20;;;;;;;18.67;59.06;100639.31;10411462;28;20025;-61
2024/04/06 21:35:51;;;;;;;4.73;1.63;;;;;;;18.67;58.05;100644.69;10392810;28;20267;-61
2024/04/06 21:40:52;;;;;;;3.03;1.20;;;;;;;18.66;58.70;100641.19;10411280;28;20797;-61
2024/04/06 21:45:52;;;;;;;2.63;1.70;;;;;;;18.67;58.56;100636.63;10392966;28;20036;-61
2024/04/06 21:50:54;;;;;;;3.23;1.23;;;;;;;18.67;58.35;100631.25;10410762;28;20394;-61
2024/04/06 21:55:55;;;;;;;4.70;1.73;;;;;;;18.65;58.74;100618.13;10410473;28;20029;-61
2024/04/06 22:00:56;;;;;;;2.00;1.33;;;;;;;18.66;58.93;100618.94;10410528;28;20037;-61
2024/04/06 22:05:56;;;;;;;3.25;1.25;;;;;;;18.65;59.23;100620.81;10409707;28;20025;-61
2024/04/06 22:10:59;;;;;;;4.27;1.70;;;;;;;18.65;58.08;100606.59;10392161;28;20384;-61
2024/04/06 22:16:00;;;;;;;4.63;1.98;;;;;;;18.65;58.45;100603.91;10392155;28;20292;-61
2024/04/06 22:21:00;;;;;;;3.20;1.27;;;;;;;18.65;58.99;100620.81;10409500;28;20029;-61
2024/04/06 22:26:01;;;;;;;2.28;1.20;;;;;;;18.65;58.48;100617.34;10409524;28;20272;-60
2024/04/06 22:31:01;;;;;;;4.53;1.55;;;;;;;18.65;58.97;100606.59;10413033;28;20111;-61
2024/04/06 22:36:02;;;;;;;3.83;1.45;;;;;;;18.66;58.96;100614.34;10412791;28;20517;-61
2024/04/06 22:41:03;;;;;;;3.42;1.33;;;;;;;18.64;58.78;100616.53;10409036;28;20018;-61
2024/04/06 22:46:03;;;;;;;4.15;1.65;;;;;;;18.64;58.64;100608.47;10407845;28;20522;-61
2024/04/06 22:51:04;;;;;;;2.90;1.83;;;;;;;18.64;58.47;100613.84;10408360;28;20029;-61
2024/04/06 22:56:04;;;;;;;2.92;1.50;;;;;;;18.65;58.75;100614.66;10391414;28;20021;-61
2024/04/06 23:01:04;;;;;;;2.80;1.17;;;;;;;18.65;58.35;100591.28;10408469;28;20493;-61
2024/04/06 23:06:05;;;;;;;2.45;1.40;;;;;;;18.64;58.64;100581.63;10408701;28;20517;-61